Time;durP1;ratioP1;P1;durP2;ratioP2;P2;SDS_P1;SDS_P2;PMS_P1;PMS_P2;Temp;Humidity;BMP_temperature;BMP_pressure;BME280_temperature;BME280_humidity;BME280_pressure;Samples;Min_cycle;Max_cycle;Signal;HPM_P1;HPM_P2
2023/03/29 00:01:08;;;;;;;1.50;1.20;;;9.20;1.00;;;;;;5126339;27;20469;-85
2023/03/29 00:03:34;;;;;;;2.30;1.30;;;9.30;1.00;;;;;;5126350;27;20386;-85
2023/03/29 00:06:01;;;;;;;2.55;1.30;;;9.30;99.90;;;;;;5125498;27;20370;-85
2023/03/29 00:08:28;;;;;;;2.80;1.10;;;9.30;1.00;;;;;;5145773;27;20538;-85
2023/03/29 00:10:55;;;;;;;1.50;1.10;;;9.30;1.00;;;;;;5134262;27;20384;-85
2023/03/29 00:13:21;;;;;;;1.50;1.30;;;9.30;1.00;;;;;;5126217;28;20391;-85
2023/03/29 00:15:47;;;;;;;2.40;1.20;;;9.20;1.00;;;;;;5119250;28;20448;-86
2023/03/29 00:18:12;;;;;;;1.70;1.40;;;9.20;40.70;;;;;;5121857;27;20391;-86
2023/03/29 00:20:38;;;;;;;2.60;1.27;;;9.10;1.00;;;;;;5121503;28;20415;-86
2023/03/29 00:23:03;;;;;;;1.20;1.10;;;9.10;22.90;;;;;;5121683;28;20412;-85
2023/03/29 00:25:29;;;;;;;1.30;1.20;;;9.10;99.90;;;;;;5135661;27;20717;-87
2023/03/29 00:27:54;;;;;;;1.30;1.20;;;9.10;99.90;;;;;;5136170;27;20382;-85
2023/03/29 00:30:20;;;;;;;1.55;1.30;;;9.20;1.00;;;;;;5121242;27;20383;-86
2023/03/29 00:32:45;;;;;;;2.23;1.40;;;9.20;24.50;;;;;;5129910;27;20490;-86
2023/03/29 00:35:11;;;;;;;1.93;1.27;;;9.10;1.00;;;;;;5147544;27;20382;-87
2023/03/29 00:37:37;;;;;;;1.10;1.00;;;9.00;1.00;;;;;;5128240;27;20402;-86
2023/03/29 00:40:10;;;;;;;1.50;1.00;;;9.00;26.60;;;;;;5147183;27;20389;-86
2023/03/29 00:42:36;;;;;;;2.15;1.40;;;9.10;46.90;;;;;;5140556;27;20378;-86
2023/03/29 00:45:04;;;;;;;2.88;1.60;;;9.10;99.90;;;;;;5137995;27;20408;-87
2023/03/29 00:47:51;;;;;;;2.00;1.40;;;9.00;1.00;;;;;;5148370;27;20385;-86
2023/03/29 00:50:38;;;;;;;1.60;1.23;;;9.00;1.00;;;;;;5133383;27;20494;-86
2023/03/29 00:53:29;;;;;;;1.20;1.05;;;9.00;45.40;;;;;;5134304;27;20389;-86
2023/03/29 00:55:58;;;;;;;1.27;1.17;;;9.10;1.00;;;;;;5147425;27;20443;-86
2023/03/29 00:58:42;;;;;;;1.90;1.30;;;9.00;1.00;;;;;;5146548;27;20442;-85
2023/03/29 01:01:14;;;;;;;2.10;1.30;;;9.00;99.90;;;;;;5118546;27;20408;-86
2023/03/29 01:03:58;;;;;;;3.28;1.30;;;10.60;99.90;;;;;;5141128;27;20378;-86
2023/03/29 01:06:28;;;;;;;1.73;1.45;;;9.00;99.90;;;;;;5145815;27;20374;-86
2023/03/29 01:08:57;;;;;;;1.40;1.30;;;9.00;51.50;;;;;;5118795;28;20392;-86
2023/03/29 01:11:46;;;;;;;1.20;1.10;;;9.00;99.90;;;;;;5103202;28;21093;-85
2023/03/29 01:14:28;;;;;;;1.90;1.30;;;8.90;99.90;;;;;;5100988;28;20391;-86
2023/03/29 01:16:54;;;;;;;1.80;1.20;;;8.90;99.90;;;;;;5111692;28;20404;-86
2023/03/29 01:19:23;;;;;;;2.15;1.10;;;8.90;99.90;;;;;;5124350;28;20372;-84
2023/03/29 01:21:57;;;;;;;1.73;1.40;;;9.00;99.90;;;;;;5122455;28;20404;-86
2023/03/29 01:24:34;;;;;;;2.05;1.30;;;8.90;99.90;;;;;;5122287;28;20376;-84
2023/03/29 01:27:05;;;;;;;3.70;1.50;;;8.90;1.00;;;;;;5130229;27;20441;-85
2023/03/29 01:29:44;;;;;;;2.10;1.30;;;9.00;1.00;;;;;;5123132;27;20383;-85
2023/03/29 01:32:15;;;;;;;4.28;1.30;;;8.90;1.00;;;;;;5123033;27;20385;-85
2023/03/29 01:34:46;;;;;;;1.30;1.20;;;8.90;16.80;;;;;;5144393;27;20371;-85
2023/03/29 01:37:23;;;;;;;2.40;1.15;;;8.90;1.00;;;;;;5110927;22;20433;-83
2023/03/29 01:39:51;;;;;;;1.85;1.40;;;8.90;1.00;;;;;;5096299;28;20405;-83
2023/03/29 01:42:27;;;;;;;2.40;1.23;;;8.90;99.90;;;;;;5091209;28;20367;-83
2023/03/29 01:45:26;;;;;;;1.40;1.10;;;9.00;1.00;;;;;;5107976;28;20366;-83
2023/03/29 01:48:13;;;;;;;1.60;1.00;;;9.10;99.90;;;;;;5087530;28;20388;-84
2023/03/29 01:50:45;;;;;;;1.33;0.90;;;9.10;99.90;;;;;;5085277;28;20437;-84
2023/03/29 01:53:35;;;;;;;1.70;1.10;;;9.10;99.90;;;;;;5061880;28;20388;-84
2023/03/29 01:56:12;;;;;;;1.20;1.10;;;9.20;99.90;;;;;;5076619;28;20402;-84
2023/03/29 01:58:43;;;;;;;1.40;1.30;;;9.10;1.00;;;;;;5060444;28;20392;-84
2023/03/29 02:01:16;;;;;;;1.73;1.10;;;9.10;99.90;;;;;;5075982;28;20380;-84
2023/03/29 02:03:48;;;;;;;1.80;1.00;;;9.20;99.90;;;;;;5072827;28;20426;-84
2023/03/29 02:06:19;;;;;;;1.25;0.80;;;9.20;99.90;;;;;;5078558;28;21083;-83
2023/03/29 02:08:45;;;;;;;1.00;0.90;;;9.20;99.90;;;;;;5060600;28;20407;-84
2023/03/29 02:11:11;;;;;;;1.75;1.10;;;9.20;1.00;;;;;;5054865;28;20386;-84
2023/03/29 02:13:37;;;;;;;1.23;1.02;;;9.30;99.90;;;;;;5043740;28;20396;-84
2023/03/29 02:16:10;;;;;;;1.83;1.10;;;9.30;99.90;;;;;;5039383;28;20406;-83
2023/03/29 02:18:37;;;;;;;1.15;0.88;;;9.40;99.90;;;;;;5056784;28;20389;-83
2023/03/29 02:21:03;;;;;;;0.90;0.80;;;10.20;99.90;;;;;;5057510;28;20523;-83
2023/03/29 02:23:45;;;;;;;0.80;0.80;;;10.60;96.50;;;;;;5039205;28;20744;-84
2023/03/29 02:26:13;;;;;;;1.00;0.90;;;11.10;24.10;;;;;;5056422;28;20737;-83
2023/03/29 02:28:40;;;;;;;1.02;0.93;;;11.50;9.10;;;;;;5038815;28;20400;-83
2023/03/29 02:31:32;;;;;;;1.52;0.80;;;11.70;1.00;;;;;;5056287;28;20386;-83
2023/03/29 02:34:06;;;;;;;1.10;0.90;;;11.90;1.00;;;;;;5056124;28;20381;-84
2023/03/29 02:36:40;;;;;;;1.00;0.90;;;11.80;1.00;;;;;;5037548;28;20498;-84
2023/03/29 02:39:08;;;;;;;1.27;0.82;;;11.70;1.00;;;;;;5038286;28;20889;-83
2023/03/29 02:41:36;;;;;;;1.83;0.90;;;11.70;1.00;;;;;;5038265;28;20499;-84
2023/03/29 02:44:06;;;;;;;1.20;1.10;;;11.60;1.00;;;;;;5055868;28;20475;-84
2023/03/29 02:46:32;;;;;;;0.98;0.70;;;11.70;1.00;;;;;;5065726;28;20379;-84
2023/03/29 02:48:59;;;;;;;1.40;1.00;;;11.70;1.00;;;;;;5067387;28;20383;-84
2023/03/29 02:51:31;;;;;;;1.00;0.90;;;11.80;1.00;;;;;;5057409;28;20444;-83
2023/03/29 02:54:07;;;;;;;1.10;0.90;;;11.70;1.00;;;;;;5075104;28;20388;-84
2023/03/29 02:56:43;;;;;;;1.70;1.10;;;11.60;1.00;;;;;;5055566;28;20408;-84
2023/03/29 02:59:11;;;;;;;1.17;0.90;;;11.70;1.00;;;;;;5056856;28;20436;-83
2023/03/29 03:01:37;;;;;;;1.08;0.88;;;12.00;1.00;;;;;;5075177;28;20781;-84
2023/03/29 03:04:02;;;;;;;1.45;0.98;;;12.00;1.00;;;;;;5084850;28;20387;-83
2023/03/29 03:06:28;;;;;;;1.10;1.00;;;12.00;1.00;;;;;;5075553;28;20383;-84
2023/03/29 03:08:54;;;;;;;1.40;0.80;;;12.10;1.00;;;;;;5075768;28;20383;-84
2023/03/29 03:11:20;;;;;;;1.90;1.20;;;12.10;1.00;;;;;;5061026;28;20472;-84
2023/03/29 03:13:45;;;;;;;1.50;1.00;;;12.10;1.00;;;;;;5038376;28;20396;-84
2023/03/29 03:16:11;;;;;;;1.60;0.80;;;12.10;1.00;;;;;;5037568;28;20934;-84
2023/03/29 03:18:37;;;;;;;0.90;0.80;;;12.20;1.00;;;;;;5037126;28;20385;-84
2023/03/29 03:21:03;;;;;;;0.80;0.80;;;12.20;1.00;;;;;;5036786;28;20386;-84
2023/03/29 03:23:29;;;;;;;1.10;0.70;;;12.20;1.00;;;;;;5037302;28;20380;-84
2023/03/29 03:25:55;;;;;;;1.10;0.90;;;12.10;1.00;;;;;;5045806;28;20386;-84
2023/03/29 03:28:23;;;;;;;1.50;0.88;;;12.00;1.00;;;;;;5037728;28;20377;-84
2023/03/29 03:30:48;;;;;;;1.10;1.00;;;12.10;1.00;;;;;;5038262;28;20412;-84
2023/03/29 03:33:14;;;;;;;1.00;0.80;;;12.20;1.00;;;;;;5038186;28;20838;-84
2023/03/29 03:35:41;;;;;;;2.00;1.00;;;12.20;1.00;;;;;;5055222;28;20393;-84
2023/03/29 03:38:07;;;;;;;1.67;1.20;;;12.10;1.00;;;;;;5048212;28;20413;-84
2023/03/29 03:40:33;;;;;;;1.65;1.15;;;12.20;1.00;;;;;;5063980;28;20424;-85
2023/03/29 03:42:58;;;;;;;1.20;1.00;;;12.20;1.00;;;;;;5042481;28;20392;-84
2023/03/29 03:45:24;;;;;;;1.40;0.90;;;12.40;1.00;;;;;;5067048;28;20437;-84
2023/03/29 03:47:50;;;;;;;2.60;1.20;;;12.30;1.00;;;;;;5058176;28;20909;-82
2023/03/29 03:50:17;;;;;;;1.30;1.00;;;12.40;1.00;;;;;;5057151;28;20392;-82
2023/03/29 03:52:42;;;;;;;1.50;1.10;;;12.40;1.00;;;;;;5057312;28;20478;-83
2023/03/29 03:55:08;;;;;;;2.42;1.10;;;12.30;1.00;;;;;;5075239;28;20825;-83
2023/03/29 03:57:36;;;;;;;1.80;1.00;;;12.30;1.00;;;;;;5057734;28;20399;-82
2023/03/29 04:00:07;;;;;;;1.90;1.20;;;12.40;1.00;;;;;;5049197;28;20402;-83
2023/03/29 04:02:33;;;;;;;1.38;0.98;;;12.40;1.00;;;;;;5075404;28;20386;-83
2023/03/29 04:05:02;;;;;;;1.20;1.00;;;12.40;1.00;;;;;;5057669;28;20376;-83
2023/03/29 04:07:28;;;;;;;1.70;1.00;;;12.40;1.00;;;;;;5076934;28;20945;-83
2023/03/29 04:09:53;;;;;;;1.90;1.30;;;12.40;1.00;;;;;;5077107;28;20438;-82
2023/03/29 04:12:19;;;;;;;1.20;1.00;;;12.40;1.00;;;;;;5059277;28;20922;-83
2023/03/29 04:14:46;;;;;;;1.40;1.30;;;12.30;1.00;;;;;;5059087;28;20385;-83
2023/03/29 04:17:11;;;;;;;1.70;1.15;;;12.20;1.00;;;;;;5039978;28;20476;-82
2023/03/29 04:19:37;;;;;;;1.90;1.20;;;12.20;1.00;;;;;;5040083;28;20423;-83
2023/03/29 04:22:03;;;;;;;2.10;1.20;;;12.30;1.00;;;;;;5058471;28;20374;-83
2023/03/29 04:24:28;;;;;;;1.83;1.10;;;12.30;1.00;;;;;;5038162;28;20744;-82
2023/03/29 04:26:54;;;;;;;1.20;1.00;;;12.30;1.00;;;;;;5038317;28;20407;-83
2023/03/29 04:29:20;;;;;;;1.50;1.10;;;12.40;1.00;;;;;;5056714;28;20390;-83
2023/03/29 04:31:45;;;;;;;1.10;1.00;;;12.30;1.00;;;;;;5047896;28;20476;-83
2023/03/29 04:34:11;;;;;;;1.50;1.17;;;12.30;1.00;;;;;;5057598;28;20380;-83
2023/03/29 04:36:37;;;;;;;1.83;0.90;;;12.40;1.00;;;;;;5076536;28;20411;-83
2023/03/29 04:39:03;;;;;;;2.50;1.20;;;12.40;1.00;;;;;;5087797;28;20376;-83
2023/03/29 04:41:29;;;;;;;1.43;1.07;;;12.50;1.00;;;;;;5065693;28;20391;-83
2023/03/29 04:43:54;;;;;;;1.60;1.40;;;12.50;1.00;;;;;;5081800;28;20387;-83
2023/03/29 04:46:20;;;;;;;1.10;1.00;;;12.60;1.00;;;;;;5063186;28;20392;-83
2023/03/29 04:48:46;;;;;;;1.50;1.08;;;12.50;1.00;;;;;;5062471;28;20388;-83
2023/03/29 04:51:12;;;;;;;1.48;1.30;;;12.50;1.00;;;;;;5063020;28;20388;-83
2023/03/29 04:53:37;;;;;;;2.17;1.30;;;12.40;1.00;;;;;;5070746;28;20399;-83
2023/03/29 04:56:03;;;;;;;1.30;1.20;;;12.50;1.00;;;;;;5062155;28;20403;-83
2023/03/29 04:58:29;;;;;;;1.70;1.20;;;12.50;1.00;;;;;;5079526;28;20387;-84
2023/03/29 05:00:58;;;;;;;1.90;1.30;;;12.50;1.00;;;;;;5079137;28;20785;-85
2023/03/29 05:03:24;;;;;;;1.27;1.00;;;12.40;1.00;;;;;;5062030;28;20780;-83
2023/03/29 05:05:50;;;;;;;1.50;1.00;;;12.50;1.00;;;;;;5081172;28;20470;-83
2023/03/29 05:08:16;;;;;;;1.75;1.10;;;12.60;1.00;;;;;;5062976;28;20376;-83
2023/03/29 05:10:42;;;;;;;1.90;1.20;;;12.40;1.00;;;;;;5061713;28;20393;-85
2023/03/29 05:13:08;;;;;;;2.10;1.10;;;12.50;1.00;;;;;;5058521;28;20781;-83
2023/03/29 05:15:34;;;;;;;2.10;1.10;;;12.50;1.00;;;;;;5040211;28;20386;-83
2023/03/29 05:17:59;;;;;;;1.40;1.20;;;12.50;1.00;;;;;;5038299;28;20408;-83
2023/03/29 05:20:25;;;;;;;1.90;1.10;;;12.50;1.00;;;;;;5041444;28;20381;-84
2023/03/29 05:22:52;;;;;;;2.00;1.10;;;12.50;1.00;;;;;;5056975;28;20397;-83
2023/03/29 05:25:18;;;;;;;1.52;1.35;;;12.50;1.00;;;;;;5038423;28;20385;-83
2023/03/29 05:27:44;;;;;;;2.20;1.30;;;12.50;1.00;;;;;;5058341;28;20539;-84
2023/03/29 05:30:12;;;;;;;1.27;1.02;;;12.40;1.00;;;;;;5059579;28;20391;-83
2023/03/29 05:32:37;;;;;;;1.67;1.05;;;12.40;1.00;;;;;;5041193;28;20399;-81
2023/03/29 05:35:03;;;;;;;1.70;1.15;;;12.40;1.00;;;;;;5057407;28;20394;-84
2023/03/29 05:37:32;;;;;;;1.40;1.20;;;12.40;1.00;;;;;;5047732;28;20492;-82
2023/03/29 05:39:57;;;;;;;1.77;1.40;;;12.40;1.00;;;;;;5055903;28;20388;-82
2023/03/29 05:42:23;;;;;;;2.40;1.30;;;12.40;1.00;;;;;;5059332;28;20384;-82
2023/03/29 05:44:49;;;;;;;1.30;1.20;;;12.40;1.00;;;;;;5051588;28;20439;-81
2023/03/29 05:47:15;;;;;;;2.00;1.33;;;12.40;1.00;;;;;;5064498;28;20385;-82
2023/03/29 05:49:41;;;;;;;1.07;0.97;;;12.40;1.00;;;;;;5055454;28;20385;-81
2023/03/29 05:52:06;;;;;;;1.90;1.30;;;12.50;1.00;;;;;;5041549;28;20913;-82
2023/03/29 05:54:32;;;;;;;2.22;1.27;;;12.50;1.00;;;;;;5060154;28;20390;-82
2023/03/29 05:56:57;;;;;;;1.50;1.10;;;12.50;1.00;;;;;;5072138;28;20407;-80
2023/03/29 05:59:23;;;;;;;2.10;1.30;;;12.50;1.00;;;;;;5066402;28;20873;-81
2023/03/29 06:01:49;;;;;;;1.50;1.20;;;12.70;1.00;;;;;;5061801;28;20431;-81
2023/03/29 06:04:14;;;;;;;1.35;1.10;;;12.70;1.00;;;;;;5037100;28;20394;-81
2023/03/29 06:06:40;;;;;;;1.60;1.20;;;12.70;1.00;;;;;;5054880;28;20469;-81
2023/03/29 06:09:08;;;;;;;1.75;1.17;;;12.70;1.00;;;;;;5055048;28;20390;-81
2023/03/29 06:11:34;;;;;;;1.65;1.10;;;12.70;1.00;;;;;;5052399;28;20390;-81
2023/03/29 06:14:01;;;;;;;1.60;1.27;;;12.70;1.00;;;;;;5049926;28;20395;-81
2023/03/29 06:16:27;;;;;;;2.50;1.30;;;12.70;1.00;;;;;;5056481;28;20533;-81
2023/03/29 06:18:53;;;;;;;1.35;1.25;;;12.70;1.00;;;;;;5075675;28;20427;-81
2023/03/29 06:21:19;;;;;;;2.20;1.30;;;12.80;1.00;;;;;;5077112;28;20404;-81
2023/03/29 06:23:45;;;;;;;1.40;1.10;;;12.80;1.00;;;;;;5064538;28;20376;-81
2023/03/29 06:26:11;;;;;;;1.30;1.13;;;12.80;1.00;;;;;;5083428;28;20407;-81
2023/03/29 06:28:37;;;;;;;1.90;1.10;;;12.90;1.00;;;;;;5065028;28;20384;-81
2023/03/29 06:31:03;;;;;;;2.77;1.10;;;12.90;1.00;;;;;;5076189;28;20391;-81
2023/03/29 06:33:31;;;;;;;2.92;1.20;;;12.80;1.00;;;;;;5074930;28;20477;-82
2023/03/29 06:35:57;;;;;;;1.40;1.10;;;12.90;1.00;;;;;;5074019;28;20392;-82
2023/03/29 06:38:25;;;;;;;1.30;0.90;;;12.90;1.00;;;;;;5054737;28;20380;-81
2023/03/29 06:40:51;;;;;;;1.48;0.98;;;13.00;1.00;;;;;;5074143;28;20376;-81
2023/03/29 06:43:17;;;;;;;2.50;1.00;;;12.90;1.00;;;;;;5058521;28;20395;-82
2023/03/29 06:45:43;;;;;;;2.30;1.20;;;12.90;1.00;;;;;;5075804;28;20785;-82
2023/03/29 06:48:09;;;;;;;2.30;1.55;;;12.90;1.00;;;;;;5059810;28;20387;-81
2023/03/29 06:50:35;;;;;;;2.20;1.23;;;13.00;1.00;;;;;;5059827;28;20387;-82
2023/03/29 06:53:01;;;;;;;1.23;1.00;;;13.00;1.00;;;;;;5077098;28;20411;-81
2023/03/29 06:55:27;;;;;;;1.55;1.30;;;13.00;1.00;;;;;;5059609;28;20396;-82
2023/03/29 06:57:53;;;;;;;1.40;0.85;;;13.10;1.00;;;;;;5084730;28;20449;-81
2023/03/29 07:00:28;;;;;;;1.40;1.10;;;13.10;1.00;;;;;;5079695;28;20391;-81
2023/03/29 07:02:56;;;;;;;1.27;0.95;;;13.20;1.00;;;;;;5077010;28;20383;-81
2023/03/29 07:05:22;;;;;;;1.33;1.10;;;13.20;1.00;;;;;;5073573;28;20418;-81
2023/03/29 07:10:21;;;;;;;1.10;0.95;;;13.20;1.00;;;;;;5067913;28;20429;-81
2023/03/29 07:12:48;;;;;;;1.60;0.90;;;13.30;1.00;;;;;;5053425;28;20527;-81
2023/03/29 07:15:14;;;;;;;2.47;1.27;;;13.30;1.00;;;;;;5053022;28;20392;-81
2023/03/29 07:17:39;;;;;;;3.28;2.28;;;13.30;1.00;;;;;;5052903;28;20433;-81
2023/03/29 07:20:11;;;;;;;3.60;1.80;;;13.40;1.00;;;;;;5053596;28;20821;-80
2023/03/29 07:22:37;;;;;;;3.78;1.80;;;13.30;1.00;;;;;;5035233;28;20393;-81
2023/03/29 07:25:03;;;;;;;2.05;1.20;;;13.30;1.00;;;;;;5053249;28;20435;-80
2023/03/29 07:27:28;;;;;;;1.70;1.17;;;13.30;1.00;;;;;;5056056;28;20385;-81
2023/03/29 07:29:55;;;;;;;1.37;1.10;;;13.40;1.00;;;;;;5065382;28;20388;-80
2023/03/29 07:32:21;;;;;;;5.22;1.90;;;13.40;1.00;;;;;;5048707;28;20389;-80
2023/03/29 07:34:48;;;;;;;1.70;1.30;;;13.40;1.00;;;;;;5066364;28;20384;-81
2023/03/29 07:37:13;;;;;;;1.48;1.30;;;13.50;1.00;;;;;;5061357;28;20441;-81
2023/03/29 07:39:39;;;;;;;3.73;1.90;;;13.50;1.00;;;;;;5053944;28;20408;-81
2023/03/29 07:42:05;;;;;;;1.67;1.40;;;13.60;1.00;;;;;;5038876;28;20677;-81
2023/03/29 07:44:32;;;;;;;3.33;1.63;;;13.60;1.00;;;;;;5057736;28;20381;-81
2023/03/29 07:47:00;;;;;;;1.27;1.10;;;13.60;1.00;;;;;;5039105;28;20393;-81
2023/03/29 07:49:26;;;;;;;1.83;1.65;;;13.70;1.00;;;;;;5057344;28;20393;-80
2023/03/29 07:51:53;;;;;;;2.92;1.20;;;13.80;1.00;;;;;;5058168;28;20748;-80
2023/03/29 07:54:19;;;;;;;1.70;1.20;;;13.80;1.00;;;;;;5039209;28;20771;-82
2023/03/29 07:56:46;;;;;;;2.60;1.10;;;13.80;1.00;;;;;;5056390;28;20406;-82
2023/03/29 07:59:12;;;;;;;1.55;1.00;;;13.90;1.00;;;;;;5057188;28;20396;-82
2023/03/29 08:01:39;;;;;;;1.90;1.10;;;13.90;1.00;;;;;;5056960;28;20464;-82
2023/03/29 08:04:05;;;;;;;1.90;1.10;;;14.00;1.00;;;;;;5056995;28;20381;-81
2023/03/29 08:06:31;;;;;;;2.57;1.10;;;14.00;1.00;;;;;;5038609;28;20384;-81
2023/03/29 08:08:57;;;;;;;1.57;1.00;;;14.10;1.00;;;;;;5040190;28;20425;-83
2023/03/29 08:11:23;;;;;;;1.90;1.00;;;14.20;1.00;;;;;;5071433;28;20396;-79
2023/03/29 08:13:50;;;;;;;1.10;1.00;;;14.10;1.00;;;;;;5058657;28;20388;-80
2023/03/29 08:16:16;;;;;;;1.00;0.90;;;14.20;1.00;;;;;;5077297;28;21026;-80
2023/03/29 08:18:41;;;;;;;1.70;1.00;;;14.30;1.00;;;;;;5061122;28;20384;-82
2023/03/29 08:21:07;;;;;;;1.30;1.00;;;14.40;1.00;;;;;;5076254;28;20388;-81
2023/03/29 08:23:32;;;;;;;1.10;1.00;;;14.40;1.00;;;;;;5076487;28;20378;-80
2023/03/29 08:25:58;;;;;;;3.67;1.20;;;14.50;1.00;;;;;;5080077;28;20383;-81
2023/03/29 08:28:24;;;;;;;1.80;0.90;;;14.60;1.00;;;;;;5076323;28;20380;-81
2023/03/29 08:30:49;;;;;;;1.27;1.17;;;14.60;1.00;;;;;;5077542;28;20449;-81
2023/03/29 08:33:15;;;;;;;2.17;1.00;;;14.70;1.00;;;;;;5077043;28;20465;-81
2023/03/29 08:35:41;;;;;;;1.87;0.90;;;14.80;1.00;;;;;;5076382;28;20437;-81
2023/03/29 08:38:07;;;;;;;1.40;1.10;;;14.80;1.00;;;;;;5058226;28;20411;-81
2023/03/29 08:40:34;;;;;;;3.60;1.10;;;14.80;1.00;;;;;;5076766;28;20466;-80
2023/03/29 08:43:38;;;;;;;2.50;1.05;;;14.80;1.00;;;;;;5084486;28;20380;-79
2023/03/29 08:46:31;;;;;;;3.63;1.20;;;14.70;1.00;;;;;;5081047;28;20398;-80
2023/03/29 08:49:01;;;;;;;2.58;1.00;;;14.70;1.00;;;;;;5053458;28;20881;-80
2023/03/29 08:51:31;;;;;;;1.40;0.90;;;14.70;1.00;;;;;;5079602;28;20387;-79
2023/03/29 08:54:17;;;;;;;2.03;1.30;;;14.80;1.00;;;;;;5081430;28;20433;-80
2023/03/29 08:56:45;;;;;;;2.70;1.20;;;14.80;1.00;;;;;;5060890;28;20416;-79
2023/03/29 08:59:23;;;;;;;3.45;1.15;;;14.70;1.00;;;;;;5085597;28;20396;-79
2023/03/29 09:01:52;;;;;;;2.55;1.35;;;14.70;1.00;;;;;;5085933;28;20407;-81
2023/03/29 09:04:34;;;;;;;1.85;1.20;;;14.70;1.00;;;;;;5061379;28;20384;-80
2023/03/29 09:07:02;;;;;;;1.75;1.10;;;14.60;1.00;;;;;;5079066;28;20408;-80
2023/03/29 09:09:32;;;;;;;1.85;1.25;;;14.60;1.00;;;;;;5062054;28;20387;-80
2023/03/29 09:12:10;;;;;;;1.00;0.90;;;14.60;1.00;;;;;;5066551;28;20393;-80
2023/03/29 09:14:55;;;;;;;1.70;0.90;;;14.60;1.00;;;;;;5042654;28;20390;-80
2023/03/29 09:17:54;;;;;;;3.05;1.15;;;14.70;1.00;;;;;;5061072;28;20405;-80
2023/03/29 09:20:40;;;;;;;1.40;0.90;;;14.70;1.00;;;;;;5056160;28;20385;-80
2023/03/29 09:23:25;;;;;;;1.73;0.95;;;14.80;1.00;;;;;;5055592;28;20378;-81
2023/03/29 09:25:58;;;;;;;1.45;1.00;;;14.90;1.00;;;;;;5037397;28;20417;-80
2023/03/29 09:28:37;;;;;;;1.27;0.90;;;14.90;1.00;;;;;;5054941;28;20472;-81
2023/03/29 09:31:11;;;;;;;1.40;1.20;;;14.90;1.00;;;;;;5055475;28;20914;-81
2023/03/29 09:34:13;;;;;;;3.30;1.00;;;14.90;1.00;;;;;;5055045;28;20480;-81
2023/03/29 09:36:39;;;;;;;2.00;1.60;;;15.00;1.00;;;;;;4995739;28;20431;-82
2023/03/29 09:39:06;;;;;;;1.60;1.10;;;15.00;1.00;;;;;;5057055;28;20381;-81
2023/03/29 09:41:40;;;;;;;3.50;1.20;;;15.10;1.00;;;;;;5040871;28;20416;-81
2023/03/29 09:44:12;;;;;;;1.60;1.20;;;15.20;1.00;;;;;;5055731;28;20414;-81
2023/03/29 09:46:42;;;;;;;1.80;1.20;;;15.20;1.00;;;;;;5037814;28;20393;-81
2023/03/29 09:49:13;;;;;;;1.45;1.10;;;15.30;1.00;;;;;;5039267;28;20394;-82
2023/03/29 09:51:40;;;;;;;3.45;1.10;;;15.20;1.00;;;;;;5056029;28;20392;-82
2023/03/29 09:54:09;;;;;;;2.20;1.10;;;15.20;1.00;;;;;;5037425;28;20390;-83
2023/03/29 09:56:35;;;;;;;1.80;1.10;;;15.30;1.00;;;;;;5059167;28;20401;-81
2023/03/29 09:59:00;;;;;;;1.40;1.10;;;15.20;1.00;;;;;;5057122;28;21020;-81
2023/03/29 10:01:36;;;;;;;1.10;0.80;;;15.30;1.00;;;;;;5057526;28;20389;-81
2023/03/29 10:04:04;;;;;;;1.95;1.60;;;15.20;1.00;;;;;;5037413;28;20420;-81
2023/03/29 10:06:30;;;;;;;1.65;0.90;;;15.30;1.00;;;;;;5037927;28;20385;-81
2023/03/29 10:08:57;;;;;;;1.80;0.77;;;15.30;1.00;;;;;;5055709;28;20416;-81
2023/03/29 10:11:34;;;;;;;1.60;0.90;;;15.40;1.00;;;;;;5069519;28;20391;-81
2023/03/29 10:14:16;;;;;;;2.10;1.10;;;15.40;1.00;;;;;;5057346;28;20383;-81
2023/03/29 10:16:46;;;;;;;2.47;1.10;;;15.20;1.00;;;;;;5074893;28;20404;-81
2023/03/29 10:19:33;;;;;;;2.10;1.20;;;15.30;1.00;;;;;;5075529;28;20380;-80
2023/03/29 10:22:01;;;;;;;1.45;0.98;;;15.20;1.00;;;;;;5057182;28;20383;-81
2023/03/29 10:24:27;;;;;;;2.55;1.10;;;15.20;1.00;;;;;;5075249;28;20391;-81
2023/03/29 10:26:58;;;;;;;2.03;1.45;;;15.20;1.00;;;;;;5075275;28;20988;-81
2023/03/29 10:29:26;;;;;;;0.98;0.90;;;15.20;1.00;;;;;;5077585;28;20467;-82
2023/03/29 10:31:53;;;;;;;1.23;1.10;;;15.20;1.00;;;;;;5059615;28;20380;-81
2023/03/29 10:34:24;;;;;;;1.80;1.30;;;15.30;1.00;;;;;;5080742;28;20388;-81
2023/03/29 10:36:57;;;;;;;1.90;1.40;;;15.20;1.00;;;;;;5073795;28;20789;-81
2023/03/29 10:39:26;;;;;;;1.63;1.20;;;15.20;1.00;;;;;;5074038;28;20379;-81
2023/03/29 10:41:52;;;;;;;3.13;1.50;;;15.30;1.00;;;;;;5056349;28;20383;-81
2023/03/29 10:44:36;;;;;;;1.65;1.20;;;15.20;1.00;;;;;;5056306;28;20467;-82
2023/03/29 10:47:32;;;;;;;2.65;1.40;;;15.20;1.00;;;;;;5062852;28;20447;-80
2023/03/29 10:49:58;;;;;;;1.52;1.20;;;15.40;1.00;;;;;;5077491;28;20394;-81
2023/03/29 10:52:24;;;;;;;1.20;1.10;;;15.40;1.00;;;;;;5073843;28;20384;-81
2023/03/29 10:54:52;;;;;;;1.27;1.10;;;15.60;1.00;;;;;;5074879;28;20513;-81
2023/03/29 10:57:31;;;;;;;1.10;0.90;;;15.60;1.00;;;;;;5082008;28;20779;-81
2023/03/29 11:00:00;;;;;;;2.00;1.05;;;15.60;1.00;;;;;;5081529;28;20437;-80
2023/03/29 11:02:55;;;;;;;1.55;1.10;;;15.60;1.00;;;;;;5078744;28;20945;-81
2023/03/29 11:05:32;;;;;;;1.98;1.00;;;15.80;1.00;;;;;;5074054;28;20429;-81
2023/03/29 11:08:07;;;;;;;2.08;0.80;;;15.70;1.00;;;;;;5074275;28;20363;-81
2023/03/29 11:11:04;;;;;;;1.25;0.93;;;16.00;1.00;;;;;;5066993;28;20389;-81
2023/03/29 11:14:06;;;;;;;3.33;1.27;;;16.10;1.00;;;;;;5054748;28;20921;-81
2023/03/29 11:16:52;;;;;;;1.80;1.10;;;16.20;1.00;;;;;;5054600;28;20417;-81
2023/03/29 11:19:38;;;;;;;1.65;1.08;;;16.10;1.00;;;;;;5057556;28;20778;-81
2023/03/29 11:22:10;;;;;;;1.83;1.20;;;16.30;1.00;;;;;;5057936;28;20468;-80
2023/03/29 11:24:51;;;;;;;1.10;0.90;;;16.30;1.00;;;;;;5040096;28;20800;-82
2023/03/29 11:27:23;;;;;;;3.10;1.25;;;16.50;1.00;;;;;;5057497;28;20871;-81
2023/03/29 11:30:16;;;;;;;1.25;1.15;;;16.60;1.00;;;;;;5039370;28;21023;-82
2023/03/29 11:33:26;;;;;;;2.00;1.13;;;16.70;1.00;;;;;;5057916;28;20907;-82
2023/03/29 11:36:25;;;;;;;2.50;1.15;;;16.80;1.00;;;;;;5039486;28;20769;-82
2023/03/29 11:39:29;;;;;;;3.10;1.13;;;17.00;1.00;;;;;;5057040;28;20393;-81
2023/03/29 11:42:05;;;;;;;1.10;0.90;;;17.10;1.00;;;;;;4956679;29;20412;-82
2023/03/29 11:44:33;;;;;;;1.50;1.10;;;17.30;1.00;;;;;;4958110;29;20390;-81
2023/03/29 11:47:11;;;;;;;1.00;0.90;;;17.30;1.00;;;;;;4995643;28;20927;-81
2023/03/29 11:49:51;;;;;;;1.50;1.10;;;17.40;1.00;;;;;;5040013;28;20385;-82
2023/03/29 11:52:28;;;;;;;2.70;1.00;;;17.40;1.00;;;;;;5057917;28;20756;-82
2023/03/29 11:55:03;;;;;;;3.10;1.40;;;17.40;1.00;;;;;;5058620;28;20383;-82
2023/03/29 11:57:39;;;;;;;1.60;1.40;;;17.80;1.00;;;;;;5057198;28;20488;-82
2023/03/29 12:00:21;;;;;;;1.90;1.30;;;17.70;1.00;;;;;;5038928;28;20469;-82
2023/03/29 12:02:52;;;;;;;3.10;1.13;;;18.00;1.00;;;;;;5039120;28;20469;-81
2023/03/29 12:05:41;;;;;;;4.32;1.30;;;18.20;1.00;;;;;;5039453;28;20417;-82
2023/03/29 12:08:21;;;;;;;1.20;1.10;;;18.20;1.00;;;;;;5057021;28;20408;-82
2023/03/29 12:11:15;;;;;;;3.55;1.50;;;18.20;1.00;;;;;;5066011;28;20384;-83
2023/03/29 12:14:01;;;;;;;2.40;1.00;;;18.00;1.00;;;;;;5051185;28;20391;-82
2023/03/29 12:16:40;;;;;;;3.08;1.20;;;18.50;1.00;;;;;;5045913;28;20401;-82
2023/03/29 12:19:19;;;;;;;1.75;1.10;;;18.80;1.00;;;;;;5048794;28;20387;-82
2023/03/29 12:21:46;;;;;;;2.53;1.40;;;18.90;1.00;;;;;;5067217;28;20384;-82
2023/03/29 12:24:20;;;;;;;2.10;1.20;;;18.80;1.00;;;;;;5065189;28;20416;-81
2023/03/29 12:27:18;;;;;;;2.00;1.05;;;18.80;1.00;;;;;;5063814;28;20766;-82
2023/03/29 12:30:16;;;;;;;3.10;1.30;;;18.50;1.00;;;;;;5055722;28;20412;-82
2023/03/29 12:32:51;;;;;;;2.50;1.20;;;18.70;1.00;;;;;;5058125;28;20416;-82
2023/03/29 12:35:42;;;;;;;2.80;1.30;;;18.30;1.00;;;;;;5069148;28;20387;-82
2023/03/29 12:38:26;;;;;;;2.22;1.40;;;18.90;1.00;;;;;;5041443;28;20410;-82
2023/03/29 12:40:57;;;;;;;1.83;1.20;;;19.50;1.00;;;;;;5062823;28;20400;-80
2023/03/29 12:43:27;;;;;;;2.53;1.23;;;20.20;1.00;;;;;;5067929;28;20373;-82
2023/03/29 12:46:00;;;;;;;2.00;1.00;;;19.90;1.00;;;;;;5053589;28;20837;-82
2023/03/29 12:48:28;;;;;;;1.38;1.20;;;20.00;1.00;;;;;;5058477;28;20889;-83
2023/03/29 12:51:01;;;;;;;2.83;1.10;;;20.30;1.00;;;;;;5057964;28;20430;-82
2023/03/29 12:53:33;;;;;;;1.45;1.17;;;20.30;1.00;;;;;;5049549;28;20387;-83
2023/03/29 12:56:02;;;;;;;2.00;1.08;;;19.90;1.00;;;;;;5058350;28;20393;-82
2023/03/29 12:58:49;;;;;;;3.70;1.30;;;19.80;1.00;;;;;;5055852;28;20410;-82
2023/03/29 13:01:26;;;;;;;3.00;1.20;;;19.30;1.00;;;;;;5068092;28;20385;-82
2023/03/29 13:04:15;;;;;;;1.37;1.20;;;19.40;1.00;;;;;;5071264;28;20389;-81
2023/03/29 13:07:04;;;;;;;2.20;1.27;;;19.20;1.00;;;;;;5073607;28;20393;-82
2023/03/29 13:09:49;;;;;;;2.10;1.50;;;19.30;1.00;;;;;;5062895;28;20479;-82
2023/03/29 13:12:19;;;;;;;2.80;1.20;;;18.90;1.00;;;;;;5069832;28;20429;-83
2023/03/29 13:14:50;;;;;;;2.42;1.40;;;19.10;1.00;;;;;;5068774;28;20396;-82
2023/03/29 13:17:41;;;;;;;2.97;1.40;;;19.10;1.00;;;;;;5070603;28;20876;-82
2023/03/29 13:20:11;;;;;;;3.83;1.60;;;19.20;1.00;;;;;;5054841;28;20379;-82
2023/03/29 13:23:30;;;;;;;1.70;1.40;;;19.50;1.00;;;;;;5076231;28;20378;-82